createdAt,value
2017-10-19T00:00:11.144Z,33.25
2017-10-19T00:02:39.414Z,34.08
2017-10-19T00:05:07.708Z,34.60
2017-10-19T00:07:36.036Z,34.28
2017-10-19T00:10:03.557Z,31.83
2017-10-19T00:12:31.060Z,33.67
2017-10-19T00:14:59.351Z,37.60
2017-10-19T00:17:26.863Z,36.53
2017-10-19T00:19:54.670Z,34.00
2017-10-19T00:22:22.200Z,32.53
2017-10-19T00:24:49.758Z,30.10
2017-10-19T00:27:17.276Z,33.22
2017-10-19T00:29:45.569Z,32.28
2017-10-19T00:32:13.852Z,31.05
2017-10-19T00:34:41.357Z,36.65
2017-10-19T00:37:08.875Z,34.15
2017-10-19T00:39:36.402Z,32.63
2017-10-19T00:42:04.718Z,33.83
2017-10-19T00:44:32.242Z,33.83
2017-10-19T00:46:59.789Z,38.78
2017-10-19T00:49:27.331Z,32.58
2017-10-19T00:51:54.852Z,33.47
2017-10-19T00:54:22.386Z,35.30
2017-10-19T00:56:50.658Z,39.50
2017-10-19T00:59:18.938Z,35.58
2017-10-19T01:01:47.239Z,31.80
2017-10-19T01:04:14.769Z,37.25
2017-10-19T01:06:43.294Z,34.63
2017-10-19T01:09:10.840Z,32.83
2017-10-19T01:11:38.359Z,33.47
2017-10-19T01:14:05.935Z,37.50
2017-10-19T01:16:34.251Z,38.45
2017-10-19T01:19:01.809Z,34.43
2017-10-19T01:21:29.312Z,35.08
2017-10-19T01:23:56.859Z,38.70
2017-10-19T01:26:24.396Z,33.70
2017-10-19T01:28:51.912Z,40.03
2017-10-19T01:31:20.211Z,33.97
2017-10-19T01:33:47.748Z,40.67
2017-10-19T01:36:15.251Z,33.25
2017-10-19T01:38:42.783Z,32.30
2017-10-19T01:41:11.063Z,35.15
2017-10-19T01:43:38.570Z,34.58
2017-10-19T01:46:06.101Z,35.08
2017-10-19T01:48:33.610Z,36.60
2017-10-19T01:51:01.132Z,37.70
2017-10-19T01:53:28.663Z,35.83
2017-10-19T01:55:56.194Z,37.97
2017-10-19T01:58:23.700Z,38.50
2017-10-19T02:00:51.223Z,34.35
2017-10-19T02:03:18.739Z,40.28
2017-10-19T02:05:46.245Z,35.35
2017-10-19T02:08:14.552Z,36.53
2017-10-19T02:10:42.832Z,33.85
2017-10-19T02:13:10.370Z,37.05
2017-10-19T02:15:37.885Z,36.13
2017-10-19T02:18:05.423Z,37.28
2017-10-19T02:20:32.945Z,34.58
2017-10-19T02:23:00.470Z,38.15
2017-10-19T02:25:27.966Z,34.67
2017-10-19T02:27:56.261Z,38.88
2017-10-19T02:30:23.780Z,31.95
2017-10-19T02:32:51.294Z,32.50
2017-10-19T02:35:18.833Z,39.60
2017-10-19T02:37:46.367Z,36.13
2017-10-19T02:40:13.891Z,36.08
2017-10-19T02:42:41.468Z,36.20
2017-10-19T02:45:08.993Z,33.40
2017-10-19T02:47:36.502Z,36.80
2017-10-19T02:50:04.871Z,32.38
2017-10-19T02:52:32.383Z,35.05
2017-10-19T02:54:59.895Z,33.30
2017-10-19T02:57:28.177Z,37.60
2017-10-19T02:59:56.475Z,33.00
2017-10-19T03:02:23.996Z,33.33
2017-10-19T03:04:51.512Z,35.97
2017-10-19T03:07:19.044Z,32.90
2017-10-19T03:09:47.329Z,36.08
2017-10-19T03:12:14.838Z,33.47
2017-10-19T03:14:42.357Z,36.25
2017-10-19T03:17:09.906Z,34.88
2017-10-19T03:19:37.428Z,39.13
2017-10-19T03:22:04.958Z,37.15
2017-10-19T03:24:32.488Z,40.80
2017-10-19T03:26:59.994Z,35.03
2017-10-19T03:29:27.503Z,39.13
2017-10-19T03:31:55.037Z,35.22
2017-10-19T03:34:22.585Z,34.72
2017-10-19T03:39:17.398Z,35.92
2017-10-19T03:41:44.926Z,40.80
2017-10-19T03:44:12.431Z,38.50
2017-10-19T03:46:39.957Z,40.58
2017-10-19T03:49:07.480Z,39.70
2017-10-19T03:51:35.003Z,37.45
2017-10-19T03:54:02.536Z,40.00
2017-10-19T03:56:30.825Z,33.28
2017-10-19T03:58:58.338Z,35.50
2017-10-19T04:01:25.865Z,33.38
2017-10-19T04:03:53.372Z,34.45
2017-10-19T04:06:20.916Z,35.63
2017-10-19T04:08:48.578Z,34.60
2017-10-19T04:11:16.103Z,35.22
2017-10-19T04:13:43.634Z,35.53
2017-10-19T04:16:11.143Z,35.20
2017-10-19T04:18:39.423Z,35.17
2017-10-19T04:21:06.947Z,37.28
2017-10-19T04:23:34.464Z,38.17
2017-10-19T04:26:01.980Z,34.97
2017-10-19T04:28:30.277Z,34.77
2017-10-19T04:30:57.812Z,34.28
2017-10-19T04:33:25.358Z,30.70
2017-10-19T04:35:52.890Z,32.72
2017-10-19T04:38:20.435Z,34.85
2017-10-19T04:40:47.946Z,33.55
2017-10-19T04:43:15.468Z,33.97
2017-10-19T04:45:42.985Z,37.07
2017-10-19T04:48:10.508Z,34.00
2017-10-19T04:50:38.035Z,36.50
2017-10-19T04:53:05.555Z,34.28
2017-10-19T04:55:33.848Z,31.00
2017-10-19T04:58:01.355Z,31.17
2017-10-19T05:00:28.877Z,34.55
2017-10-19T05:02:56.406Z,32.63
2017-10-19T05:05:23.936Z,34.60
2017-10-19T05:07:51.472Z,31.25
2017-10-19T05:10:18.980Z,36.20
2017-10-19T05:12:46.525Z,33.30
2017-10-19T05:15:14.087Z,34.65
2017-10-19T05:17:41.611Z,33.65
2017-10-19T05:20:09.633Z,33.33
2017-10-19T05:22:37.227Z,30.62
2017-10-19T05:25:06.711Z,32.67
2017-10-19T05:27:35.010Z,35.47
2017-10-19T05:30:03.363Z,38.17
2017-10-19T05:32:31.644Z,35.42
2017-10-19T05:34:59.162Z,28.83
2017-10-19T05:37:26.687Z,33.88
2017-10-19T05:39:54.206Z,33.05
2017-10-19T05:42:21.749Z,32.45
2017-10-19T05:44:49.275Z,33.07
2017-10-19T05:47:16.782Z,37.72
2017-10-19T05:49:44.319Z,33.53
2017-10-19T05:52:11.841Z,36.25
2017-10-19T05:54:39.363Z,34.42
2017-10-19T05:57:06.903Z,33.47
2017-10-19T05:59:34.435Z,39.63
2017-10-19T06:02:01.965Z,30.80
2017-10-19T06:04:30.472Z,33.22
2017-10-19T06:06:58.025Z,30.75
2017-10-19T06:09:25.544Z,30.58
2017-10-19T06:11:53.074Z,31.00
2017-10-19T06:14:20.588Z,31.83
2017-10-19T06:16:48.867Z,28.98
2017-10-19T06:19:16.512Z,32.08
2017-10-19T06:21:44.927Z,35.70
2017-10-19T06:24:12.461Z,36.10
2017-10-19T06:26:40.741Z,27.85
2017-10-19T06:29:09.006Z,29.08
2017-10-19T06:31:37.902Z,29.98
2017-10-19T06:34:06.188Z,30.75
2017-10-19T06:36:33.710Z,30.85
2017-10-19T06:39:01.262Z,30.48
2017-10-19T06:41:28.788Z,30.00
2017-10-19T06:43:56.323Z,36.28
2017-10-19T06:46:24.628Z,29.92
2017-10-19T06:48:52.152Z,39.53
2017-10-19T06:51:20.441Z,37.08
2017-10-19T06:53:48.758Z,40.17
2017-10-19T06:56:16.275Z,38.88
2017-10-19T06:58:44.591Z,47.40
2017-10-19T07:01:12.108Z,43.22
2017-10-19T07:03:40.387Z,43.87
2017-10-19T07:06:08.686Z,51.07
2017-10-19T07:08:36.206Z,44.45
2017-10-19T07:11:03.743Z,47.25
2017-10-19T07:13:31.368Z,44.40
2017-10-19T07:15:58.910Z,49.53
2017-10-19T07:18:26.555Z,49.77
2017-10-19T07:20:54.849Z,48.22
2017-10-19T07:23:23.144Z,45.70
2017-10-19T07:25:50.662Z,53.22
2017-10-19T07:28:18.181Z,44.58
2017-10-19T07:30:45.690Z,57.70
2017-10-19T07:33:14.103Z,40.45
2017-10-19T07:35:41.656Z,48.60
2017-10-19T07:38:09.174Z,47.90
2017-10-19T07:40:36.691Z,45.60
2017-10-19T07:43:04.246Z,45.30
2017-10-19T07:45:31.912Z,45.85
2017-10-19T07:47:59.424Z,46.90
2017-10-19T07:50:26.960Z,47.80
2017-10-19T07:52:54.469Z,45.10
2017-10-19T07:55:22.013Z,42.77
2017-10-19T07:57:49.550Z,43.03
2017-10-19T08:00:17.049Z,42.62
2017-10-19T08:02:44.592Z,44.22
2017-10-19T08:05:12.168Z,51.55
2017-10-19T08:07:39.704Z,45.03
2017-10-19T08:10:07.224Z,47.25
2017-10-19T08:12:34.812Z,47.43
2017-10-19T08:15:02.331Z,46.75
2017-10-19T08:17:29.853Z,43.45
2017-10-19T08:19:58.264Z,44.13
2017-10-19T08:22:25.787Z,43.72
2017-10-19T08:24:54.095Z,52.60
2017-10-19T08:27:21.620Z,44.55
2017-10-19T08:29:49.149Z,47.53
2017-10-19T08:32:17.439Z,46.22
2017-10-19T08:34:44.987Z,45.30
2017-10-19T08:37:12.718Z,48.78
2017-10-19T08:39:40.246Z,42.78
2017-10-19T08:42:08.552Z,45.45
2017-10-19T08:44:36.052Z,48.55
2017-10-19T08:47:03.567Z,46.60
2017-10-19T08:49:31.072Z,49.92
2017-10-19T08:51:59.045Z,47.35
2017-10-19T08:54:26.613Z,50.20
2017-10-19T08:56:54.123Z,48.58
2017-10-19T08:59:21.636Z,48.08
2017-10-19T09:01:49.345Z,50.03
2017-10-19T09:04:16.867Z,51.08
2017-10-19T09:06:45.187Z,48.10
2017-10-19T09:09:12.725Z,54.40
2017-10-19T09:11:40.255Z,53.55
2017-10-19T09:14:07.776Z,53.00
2017-10-19T09:16:35.307Z,53.87
2017-10-19T09:19:03.402Z,53.85
2017-10-19T09:21:30.922Z,53.50
2017-10-19T09:23:59.208Z,55.00
2017-10-19T09:26:26.993Z,56.00
2017-10-19T09:28:54.525Z,51.45
2017-10-19T09:31:22.827Z,53.22
2017-10-19T09:33:50.357Z,54.35
2017-10-19T09:36:18.637Z,52.50
2017-10-19T09:38:46.942Z,50.75
2017-10-19T09:41:14.556Z,56.90
2017-10-19T09:43:42.065Z,55.90
2017-10-19T09:46:09.575Z,52.75
2017-10-19T09:48:37.098Z,61.65
2017-10-19T09:51:04.641Z,54.53
2017-10-19T09:53:32.154Z,57.40
2017-10-19T09:55:59.677Z,54.42
2017-10-19T09:58:27.199Z,53.83
2017-10-19T10:00:54.853Z,56.55
2017-10-19T10:03:22.519Z,52.00
2017-10-19T10:05:50.049Z,56.22
2017-10-19T10:08:17.561Z,55.30
2017-10-19T10:10:45.088Z,57.80
2017-10-19T10:13:12.592Z,53.47
2017-10-19T10:15:40.117Z,53.17
2017-10-19T10:18:08.418Z,58.55
2017-10-19T10:20:35.940Z,58.55
2017-10-19T10:23:03.478Z,57.33
2017-10-19T10:25:31.099Z,59.22
2017-10-19T10:27:58.765Z,60.60
2017-10-19T10:30:26.283Z,58.28
2017-10-19T10:32:54.565Z,58.50
2017-10-19T10:35:22.856Z,59.70
2017-10-19T10:37:51.138Z,57.45
2017-10-19T10:40:18.691Z,54.45
2017-10-19T10:42:46.956Z,58.35
2017-10-19T10:45:14.573Z,56.15
2017-10-19T10:47:42.075Z,57.33
2017-10-19T10:50:09.588Z,56.67
2017-10-19T10:52:37.187Z,62.13
2017-10-19T10:55:04.824Z,59.35
2017-10-19T10:57:32.352Z,60.33
2017-10-19T10:59:59.880Z,58.05
2017-10-19T11:02:28.187Z,60.63
2017-10-19T11:04:55.954Z,55.55
2017-10-19T11:07:23.569Z,57.62
2017-10-19T11:09:51.084Z,50.92
2017-10-19T11:12:18.603Z,55.00
2017-10-19T11:14:46.902Z,56.22
2017-10-19T11:17:14.417Z,55.47
2017-10-19T11:19:41.923Z,55.22
2017-10-19T11:22:09.448Z,55.47
2017-10-19T11:24:37.723Z,52.35
2017-10-19T11:27:06.028Z,54.80
2017-10-19T11:29:33.531Z,52.78
2017-10-19T11:32:01.082Z,52.22
2017-10-19T11:34:28.621Z,53.50
2017-10-19T11:36:56.141Z,53.70
2017-10-19T11:39:23.685Z,52.50
2017-10-19T11:41:51.213Z,50.80
2017-10-19T11:44:18.742Z,46.35
2017-10-19T11:46:46.274Z,47.20
2017-10-19T11:49:13.781Z,45.67
2017-10-19T11:51:41.338Z,49.42
2017-10-19T11:54:08.856Z,43.25
2017-10-19T11:56:37.153Z,50.88
2017-10-19T11:59:05.445Z,41.03
2017-10-19T12:01:32.968Z,42.30
2017-10-19T12:04:00.487Z,44.65
2017-10-19T12:06:27.986Z,43.60
2017-10-19T12:08:55.626Z,45.38
2017-10-19T12:11:23.173Z,43.30
2017-10-19T12:13:50.720Z,48.25
2017-10-19T12:16:18.219Z,45.67
2017-10-19T12:18:45.742Z,46.28
2017-10-19T12:21:13.279Z,42.72
2017-10-19T12:23:40.837Z,45.55
2017-10-19T12:26:08.419Z,43.95
2017-10-19T12:28:35.944Z,49.55
2017-10-19T12:31:04.240Z,47.13
2017-10-19T12:33:31.780Z,51.50
2017-10-19T12:35:59.665Z,51.15
2017-10-19T12:38:27.180Z,51.30
2017-10-19T12:40:54.720Z,53.97
2017-10-19T12:43:22.253Z,51.58
2017-10-19T12:45:50.618Z,55.00
2017-10-19T12:48:18.146Z,53.92
2017-10-19T12:50:45.707Z,54.53
2017-10-19T12:53:13.991Z,58.78
2017-10-19T12:55:42.271Z,49.13
2017-10-19T12:58:10.589Z,52.55
2017-10-19T13:00:38.177Z,50.85
2017-10-19T13:03:05.712Z,48.30
2017-10-19T13:05:33.234Z,52.17
2017-10-19T13:08:00.777Z,48.03
2017-10-19T13:10:28.278Z,51.58
2017-10-19T13:12:55.798Z,48.90
2017-10-19T13:15:23.330Z,51.45
2017-10-19T13:17:50.845Z,51.58
2017-10-19T13:20:18.370Z,54.28
2017-10-19T13:22:45.897Z,46.95
2017-10-19T13:25:13.423Z,49.95
2017-10-19T13:27:40.942Z,48.85
2017-10-19T13:30:08.470Z,42.42
2017-10-19T13:32:36.004Z,47.00
2017-10-19T13:35:03.526Z,42.88
2017-10-19T13:37:31.173Z,52.15
2017-10-19T13:39:58.685Z,49.67
2017-10-19T13:42:26.535Z,51.75
2017-10-19T13:44:54.091Z,65.32
2017-10-19T13:47:22.364Z,56.78
2017-10-19T13:49:50.681Z,45.10
2017-10-19T13:52:18.243Z,47.67
2017-10-19T13:54:45.752Z,50.05
2017-10-19T13:57:14.064Z,49.30
2017-10-19T13:59:41.616Z,46.22
2017-10-19T14:02:09.155Z,50.40
2017-10-19T14:04:37.447Z,50.20
2017-10-19T14:07:05.814Z,51.83
2017-10-19T14:09:33.466Z,50.75
2017-10-19T14:12:01.078Z,47.72
2017-10-19T14:14:28.622Z,51.33
2017-10-19T14:16:56.138Z,53.30
2017-10-19T14:19:23.667Z,59.75
2017-10-19T14:21:51.189Z,51.42
2017-10-19T14:24:18.746Z,59.40
2017-10-19T14:26:46.261Z,55.00
2017-10-19T14:29:13.787Z,55.92
2017-10-19T14:31:41.331Z,52.88
2017-10-19T14:34:09.639Z,55.28
2017-10-19T14:36:37.250Z,56.08
2017-10-19T14:39:04.769Z,56.90
2017-10-19T14:41:32.284Z,60.63
2017-10-19T14:43:59.815Z,52.55
2017-10-19T14:46:27.385Z,55.97
2017-10-19T14:48:54.909Z,55.08
2017-10-19T14:51:22.423Z,58.00
